Time;durP1;ratioP1;P1;durP2;ratioP2;P2;SDS_P1;SDS_P2;PMS_P1;PMS_P2;Temp;Humidity;BMP_temperature;BMP_pressure;BME280_temperature;BME280_humidity;BME280_pressure;Samples;Min_cycle;Max_cycle;Signal;HPM_P1;HPM_P2
2022/06/01 00:01:34;;;;;;;2.47;0.95;;;24.30;45.10;;;;;;5012978;28;20030;-51
2022/06/01 00:04:00;;;;;;;4.07;0.90;;;24.30;45.30;;;;;;5013385;28;20025;-52
2022/06/01 00:06:26;;;;;;;2.83;1.00;;;24.30;45.40;;;;;;5013451;28;20398;-51
2022/06/01 00:08:52;;;;;;;2.17;0.85;;;24.30;45.30;;;;;;5013752;28;20045;-54
2022/06/01 00:11:18;;;;;;;2.40;0.80;;;24.30;45.10;;;;;;5013335;28;20080;-52
2022/06/01 00:13:44;;;;;;;1.98;0.85;;;24.30;45.10;;;;;;5012656;28;20056;-50
2022/06/01 00:16:10;;;;;;;3.28;0.93;;;24.30;45.10;;;;;;5013681;28;20040;-52
2022/06/01 00:18:37;;;;;;;2.85;0.98;;;24.30;44.90;;;;;;5014024;28;20046;-51
2022/06/01 00:21:04;;;;;;;2.72;1.00;;;24.30;45.10;;;;;;5013438;28;20080;-53
2022/06/01 00:23:30;;;;;;;2.72;0.88;;;24.20;45.00;;;;;;5014748;28;20029;-52
2022/06/01 00:25:58;;;;;;;1.77;0.80;;;24.30;45.20;;;;;;5012712;28;20501;-50
2022/06/01 00:28:23;;;;;;;2.05;0.82;;;24.30;45.10;;;;;;5012966;28;20037;-51
2022/06/01 00:30:49;;;;;;;1.85;0.82;;;24.20;45.10;;;;;;5013467;28;20025;-51
2022/06/01 00:33:15;;;;;;;3.78;1.10;;;24.20;45.20;;;;;;5013164;28;20033;-51
2022/06/01 00:35:40;;;;;;;1.33;0.70;;;24.20;45.10;;;;;;5013624;28;20029;-53
2022/06/01 00:38:06;;;;;;;2.92;0.80;;;24.20;45.00;;;;;;5013463;28;20018;-52
2022/06/01 00:40:32;;;;;;;2.10;0.90;;;24.20;45.00;;;;;;5013505;28;20050;-52
2022/06/01 00:43:00;;;;;;;2.50;0.90;;;24.20;45.10;;;;;;5012960;28;20033;-50
2022/06/01 00:45:29;;;;;;;1.60;0.60;;;24.20;45.00;;;;;;5014535;28;20039;-50
2022/06/01 00:47:55;;;;;;;1.70;0.63;;;24.20;45.00;;;;;;5015446;28;20025;-51
2022/06/01 00:50:31;;;;;;;2.28;0.85;;;24.20;45.00;;;;;;5014821;28;20041;-52
2022/06/01 00:53:13;;;;;;;1.75;0.60;;;24.20;45.00;;;;;;5013926;28;20030;-51
2022/06/01 00:55:46;;;;;;;1.83;0.90;;;24.20;45.00;;;;;;5012653;28;20026;-50
2022/06/01 00:58:19;;;;;;;2.08;1.00;;;24.20;45.00;;;;;;5013011;28;20036;-52
2022/06/01 01:00:48;;;;;;;1.52;0.80;;;24.20;44.90;;;;;;5013118;28;20021;-51
2022/06/01 01:03:15;;;;;;;2.30;0.90;;;24.20;45.00;;;;;;5012428;28;20706;-52
2022/06/01 01:05:47;;;;;;;2.72;1.10;;;24.20;45.00;;;;;;5012770;28;20049;-52
2022/06/01 01:08:13;;;;;;;2.60;0.82;;;24.20;45.00;;;;;;5012624;28;20037;-52
2022/06/01 01:10:39;;;;;;;3.63;0.77;;;24.20;44.90;;;;;;5012612;28;20029;-51
2022/06/01 01:13:08;;;;;;;1.05;0.50;;;24.20;45.00;;;;;;5012475;28;20025;-51
2022/06/01 01:15:40;;;;;;;1.83;0.80;;;24.20;45.00;;;;;;5012880;28;20079;-52
2022/06/01 01:18:13;;;;;;;1.33;0.63;;;24.20;45.20;;;;;;5012808;28;20028;-54
2022/06/01 01:20:57;;;;;;;1.95;0.65;;;24.20;45.20;;;;;;5012315;28;20106;-53
2022/06/01 01:23:47;;;;;;;1.38;0.70;;;24.20;45.20;;;;;;5015051;28;20053;-50
2022/06/01 01:26:14;;;;;;;1.67;0.63;;;24.20;45.20;;;;;;5013730;28;20060;-52
2022/06/01 01:28:41;;;;;;;1.90;0.80;;;24.10;45.10;;;;;;5014758;28;20266;-52
2022/06/01 01:31:18;;;;;;;1.63;0.60;;;24.20;45.10;;;;;;5014133;28;20040;-52
2022/06/01 01:33:46;;;;;;;1.90;0.73;;;24.10;45.10;;;;;;5012860;28;20045;-52
2022/06/01 01:36:14;;;;;;;2.10;0.80;;;24.20;45.00;;;;;;5012342;28;20028;-51
2022/06/01 01:38:47;;;;;;;1.25;0.60;;;24.20;45.10;;;;;;5012723;28;20048;-52
2022/06/01 01:41:31;;;;;;;2.00;0.65;;;24.20;45.10;;;;;;5012076;28;20461;-52
2022/06/01 01:44:29;;;;;;;1.65;0.73;;;24.20;45.00;;;;;;5011452;28;20034;-51
2022/06/01 01:46:58;;;;;;;1.80;0.68;;;24.10;45.00;;;;;;5012163;28;20269;-52
2022/06/01 01:49:30;;;;;;;1.27;0.70;;;24.10;45.00;;;;;;5012299;28;20505;-52
2022/06/01 01:52:08;;;;;;;1.67;0.80;;;24.10;45.00;;;;;;5012209;28;20030;-52
2022/06/01 01:55:00;;;;;;;1.77;0.60;;;24.10;44.90;;;;;;5012122;28;20014;-52
2022/06/01 01:57:38;;;;;;;1.33;0.70;;;24.10;45.10;;;;;;5013060;28;20025;-51
2022/06/01 02:00:36;;;;;;;2.40;0.82;;;24.10;45.10;;;;;;5014111;28;20056;-52
2022/06/01 02:03:21;;;;;;;2.65;0.80;;;24.10;45.10;;;;;;5015560;28;20025;-52
2022/06/01 02:06:05;;;;;;;1.70;0.70;;;24.10;45.10;;;;;;5018502;28;20029;-52
2022/06/01 02:08:54;;;;;;;1.38;0.70;;;24.10;45.40;;;;;;5016506;28;20033;-52
2022/06/01 02:14:37;;;;;;;1.63;0.70;;;24.10;45.20;;;;;;5015794;28;20527;-51
2022/06/01 02:17:06;;;;;;;1.75;0.70;;;24.10;45.90;;;;;;5014876;28;20057;-52
2022/06/01 02:19:42;;;;;;;1.48;0.70;;;24.10;45.20;;;;;;5015574;28;20018;-51
2022/06/01 02:22:11;;;;;;;2.30;0.73;;;24.10;45.20;;;;;;5014788;28;20029;-52
2022/06/01 02:24:38;;;;;;;1.38;0.70;;;24.10;45.20;;;;;;5014630;28;20525;-51
2022/06/01 02:27:04;;;;;;;1.35;0.70;;;24.10;45.20;;;;;;5015161;28;20053;-52
2022/06/01 02:29:36;;;;;;;1.83;0.70;;;24.10;45.10;;;;;;5015624;28;20040;-51
2022/06/01 02:32:05;;;;;;;1.10;0.70;;;24.00;45.10;;;;;;5015113;28;20029;-51
2022/06/01 02:34:32;;;;;;;2.22;0.80;;;24.10;45.10;;;;;;5014848;28;20068;-52
2022/06/01 02:37:00;;;;;;;1.98;0.73;;;24.00;45.00;;;;;;5015027;28;20453;-51
2022/06/01 02:39:27;;;;;;;1.83;0.80;;;24.00;45.00;;;;;;5015225;28;20028;-51
2022/06/01 02:42:30;;;;;;;2.08;0.80;;;24.10;45.20;;;;;;5014602;28;20053;-51
2022/06/01 02:44:58;;;;;;;1.27;0.60;;;24.00;45.10;;;;;;5014956;28;20116;-53
2022/06/01 02:47:26;;;;;;;2.17;0.82;;;24.10;45.20;;;;;;5015426;28;20083;-51
2022/06/01 02:49:51;;;;;;;1.75;0.70;;;24.00;45.20;;;;;;5014636;28;20041;-52
2022/06/01 02:52:18;;;;;;;1.23;0.70;;;24.00;45.20;;;;;;5014952;28;20041;-51
2022/06/01 02:54:44;;;;;;;1.60;0.77;;;24.00;45.20;;;;;;5013655;28;20021;-51
2022/06/01 02:57:09;;;;;;;1.83;0.73;;;24.00;45.20;;;;;;5015471;28;20029;-51
2022/06/01 02:59:36;;;;;;;2.45;0.70;;;24.00;45.10;;;;;;5014135;28;20026;-51
2022/06/01 03:02:02;;;;;;;1.48;0.75;;;24.00;45.10;;;;;;5014228;28;20060;-50
2022/06/01 03:04:27;;;;;;;1.65;0.77;;;24.00;45.10;;;;;;5014346;28;20034;-50
2022/06/01 03:06:54;;;;;;;2.35;0.75;;;24.00;45.10;;;;;;5014482;28;20041;-52
2022/06/01 03:09:20;;;;;;;3.22;1.10;;;24.00;45.10;;;;;;5014806;28;20037;-51
2022/06/01 03:11:45;;;;;;;1.60;0.70;;;24.00;45.10;;;;;;5014215;28;20500;-51
2022/06/01 03:14:11;;;;;;;1.30;0.60;;;24.00;45.00;;;;;;5014196;28;20107;-51
2022/06/01 03:16:40;;;;;;;1.65;0.70;;;24.00;45.00;;;;;;5014034;28;20698;-51
2022/06/01 03:19:06;;;;;;;1.20;0.60;;;24.00;45.00;;;;;;5014453;28;20022;-51
2022/06/01 03:21:32;;;;;;;1.83;0.77;;;24.00;45.10;;;;;;5015106;28;20021;-51
2022/06/01 03:23:58;;;;;;;1.77;0.70;;;24.00;45.10;;;;;;5016229;28;20493;-51
2022/06/01 03:26:24;;;;;;;1.95;0.80;;;24.00;45.10;;;;;;5017717;28;20026;-52
2022/06/01 03:28:49;;;;;;;1.90;0.77;;;24.00;45.00;;;;;;5015080;28;20105;-52
2022/06/01 03:31:15;;;;;;;1.13;0.73;;;24.00;45.20;;;;;;5015552;28;20178;-53
2022/06/01 03:33:42;;;;;;;1.48;0.82;;;24.00;45.10;;;;;;5017525;28;20118;-53
2022/06/01 03:36:10;;;;;;;2.85;1.00;;;24.00;45.10;;;;;;5017006;28;20020;-52
2022/06/01 03:38:36;;;;;;;1.75;0.80;;;24.00;45.20;;;;;;5016319;28;20014;-52
2022/06/01 03:41:03;;;;;;;1.77;0.80;;;24.00;45.10;;;;;;5016750;28;20116;-51
2022/06/01 03:43:29;;;;;;;1.83;0.70;;;24.00;45.20;;;;;;5019808;28;20037;-55
2022/06/01 03:45:59;;;;;;;1.35;0.77;;;24.00;45.30;;;;;;5015073;28;20041;-52
2022/06/01 03:48:30;;;;;;;2.97;1.00;;;24.00;45.50;;;;;;5016612;28;20025;-52
2022/06/01 03:50:57;;;;;;;1.65;0.80;;;24.00;45.70;;;;;;5008583;28;20567;-51
2022/06/01 03:53:24;;;;;;;2.17;0.98;;;24.00;45.90;;;;;;5012339;28;20123;-51
2022/06/01 03:55:52;;;;;;;1.95;0.80;;;24.00;46.10;;;;;;5013770;28;20067;-51
2022/06/01 03:58:22;;;;;;;2.58;0.82;;;24.00;46.20;;;;;;5014690;28;20018;-51
2022/06/01 04:00:49;;;;;;;3.00;0.93;;;24.00;46.20;;;;;;5011308;28;20033;-52
2022/06/01 04:03:15;;;;;;;2.13;0.93;;;24.00;46.20;;;;;;5011948;28;20018;-52
2022/06/01 04:05:41;;;;;;;2.63;1.08;;;24.00;46.20;;;;;;5013488;28;20029;-53
2022/06/01 04:08:07;;;;;;;2.63;1.17;;;24.00;46.10;;;;;;5012699;28;20030;-51
2022/06/01 04:10:35;;;;;;;2.13;0.95;;;24.00;46.10;;;;;;5012892;28;20037;-52
2022/06/01 04:13:02;;;;;;;2.72;1.00;;;24.00;46.10;;;;;;5012187;28;20048;-52
2022/06/01 04:15:28;;;;;;;3.35;1.00;;;24.00;46.30;;;;;;5013530;28;20077;-51
2022/06/01 04:17:54;;;;;;;3.38;1.00;;;24.00;46.30;;;;;;5012813;28;20024;-51
2022/06/01 04:20:19;;;;;;;3.83;1.40;;;24.00;46.40;;;;;;5015170;28;20022;-52
2022/06/01 04:22:46;;;;;;;2.25;0.90;;;24.00;46.50;;;;;;5015766;28;20058;-51
2022/06/01 04:25:15;;;;;;;3.95;1.17;;;24.00;47.20;;;;;;5017693;28;20037;-51
2022/06/01 04:27:41;;;;;;;4.82;1.30;;;24.00;46.40;;;;;;5013391;28;20126;-51
2022/06/01 04:30:11;;;;;;;3.50;1.30;;;24.00;46.50;;;;;;5012896;28;20888;-52
2022/06/01 04:32:37;;;;;;;2.88;1.30;;;24.00;46.30;;;;;;5013178;28;20021;-51
2022/06/01 04:35:04;;;;;;;3.78;1.48;;;24.00;46.30;;;;;;5012753;28;20389;-52
2022/06/01 04:37:30;;;;;;;2.85;1.40;;;24.00;46.20;;;;;;5013141;28;20026;-51
2022/06/01 04:39:55;;;;;;;2.65;1.13;;;24.00;46.20;;;;;;5011932;28;20029;-51
2022/06/01 04:42:21;;;;;;;3.40;0.98;;;24.00;46.10;;;;;;5012467;28;20569;-51
2022/06/01 04:44:47;;;;;;;2.67;1.00;;;24.00;46.10;;;;;;5013163;28;20036;-52
2022/06/01 04:47:13;;;;;;;2.22;0.90;;;24.00;46.00;;;;;;5013084;28;20736;-52
2022/06/01 04:49:39;;;;;;;4.28;1.25;;;24.00;46.00;;;;;;5013092;28;20080;-51
2022/06/01 04:52:07;;;;;;;1.98;0.88;;;24.00;45.80;;;;;;5013018;28;20061;-51
2022/06/01 04:54:34;;;;;;;2.78;1.15;;;24.00;45.90;;;;;;5012216;28;20409;-51
2022/06/01 04:56:59;;;;;;;2.70;0.80;;;24.00;45.80;;;;;;5012795;28;20033;-52
2022/06/01 04:59:25;;;;;;;3.00;0.93;;;24.00;45.80;;;;;;5027230;28;20037;-53
2022/06/01 05:01:51;;;;;;;2.58;0.93;;;24.00;45.70;;;;;;5012222;28;20180;-52
2022/06/01 05:04:17;;;;;;;2.17;0.75;;;24.00;45.70;;;;;;5011649;28;20505;-52
2022/06/01 05:06:42;;;;;;;2.90;0.88;;;24.00;45.70;;;;;;5013245;28;20030;-52
2022/06/01 05:09:08;;;;;;;2.83;1.02;;;24.00;45.70;;;;;;5013300;28;20055;-52
2022/06/01 05:11:34;;;;;;;3.03;1.25;;;24.00;45.70;;;;;;5013236;28;20057;-51
2022/06/01 05:14:01;;;;;;;2.55;0.80;;;24.00;45.70;;;;;;5014441;28;20040;-51
2022/06/01 05:16:27;;;;;;;2.10;1.02;;;24.00;46.20;;;;;;5013857;28;20804;-52
2022/06/01 05:18:52;;;;;;;2.53;0.85;;;24.00;46.40;;;;;;5014543;28;20033;-50
2022/06/01 05:21:19;;;;;;;1.70;0.60;;;24.00;46.60;;;;;;5017213;28;20026;-51
2022/06/01 05:23:45;;;;;;;1.60;0.80;;;24.00;46.50;;;;;;5012704;28;20018;-51
2022/06/01 05:26:10;;;;;;;2.30;0.80;;;24.10;46.70;;;;;;5012328;28;20498;-51
2022/06/01 05:28:36;;;;;;;2.63;0.90;;;24.20;46.50;;;;;;5013401;28;20441;-49
2022/06/01 05:31:09;;;;;;;2.83;0.88;;;24.20;46.30;;;;;;5013129;28;20045;-49
2022/06/01 05:33:35;;;;;;;2.63;1.02;;;24.30;46.20;;;;;;5012678;28;20034;-49
2022/06/01 05:36:00;;;;;;;2.35;1.00;;;24.30;46.20;;;;;;5013364;28;20053;-49
2022/06/01 05:38:26;;;;;;;2.40;0.80;;;24.30;47.10;;;;;;5015436;28;20087;-52
2022/06/01 05:40:52;;;;;;;2.03;0.77;;;24.30;47.10;;;;;;5016630;28;20018;-49
2022/06/01 05:43:18;;;;;;;2.00;0.80;;;24.30;47.20;;;;;;5015184;28;20091;-50
2022/06/01 05:45:44;;;;;;;2.67;0.88;;;24.30;47.30;;;;;;5016923;28;20029;-47
2022/06/01 05:48:16;;;;;;;1.80;0.63;;;24.30;47.10;;;;;;5016688;28;20026;-51
2022/06/01 05:50:42;;;;;;;2.17;0.70;;;24.40;47.10;;;;;;5017731;28;20681;-47
2022/06/01 05:53:09;;;;;;;1.90;0.80;;;24.40;46.90;;;;;;5016343;28;20025;-47
2022/06/01 05:55:36;;;;;;;1.92;0.70;;;24.40;46.80;;;;;;5015009;28;20022;-48
2022/06/01 05:58:14;;;;;;;1.90;0.80;;;24.40;46.90;;;;;;5017129;28;20033;-51
2022/06/01 06:00:40;;;;;;;2.67;0.68;;;24.40;47.10;;;;;;5018129;28;20026;-50
2022/06/01 06:03:06;;;;;;;2.15;0.75;;;24.40;47.10;;;;;;5019387;28;20026;-50
2022/06/01 06:08:22;;;;;;;1.30;0.70;;;24.50;47.10;;;;;;5018827;28;20067;-49
2022/06/01 06:10:48;;;;;;;1.55;0.65;;;24.50;47.00;;;;;;5020240;28;20174;-49
2022/06/01 06:13:14;;;;;;;1.85;0.60;;;24.50;46.90;;;;;;5017899;28;20040;-50
2022/06/01 06:15:40;;;;;;;2.08;0.90;;;24.50;46.80;;;;;;5016632;28;20025;-50
2022/06/01 06:18:06;;;;;;;1.83;1.00;;;24.50;46.50;;;;;;5016913;28;20049;-49
2022/06/01 06:20:33;;;;;;;1.77;0.60;;;24.50;46.20;;;;;;5016420;28;20035;-48
2022/06/01 06:22:59;;;;;;;1.50;0.63;;;24.50;46.10;;;;;;5015730;28;20057;-49
2022/06/01 06:25:25;;;;;;;1.83;0.70;;;24.50;46.00;;;;;;5016279;28;20026;-50
2022/06/01 06:27:51;;;;;;;2.30;0.60;;;24.50;45.80;;;;;;5015802;28;20642;-48
2022/06/01 06:30:19;;;;;;;1.40;0.47;;;24.60;45.80;;;;;;5015987;28;20102;-48
2022/06/01 06:32:45;;;;;;;4.88;1.13;;;24.60;45.60;;;;;;5019372;28;20022;-47
2022/06/01 06:35:12;;;;;;;1.63;0.52;;;24.60;46.30;;;;;;5017102;28;20030;-48
2022/06/01 06:37:38;;;;;;;3.15;1.10;;;24.60;46.30;;;;;;5014908;28;20493;-48
2022/06/01 06:40:04;;;;;;;2.03;0.82;;;24.60;46.40;;;;;;5020823;28;20045;-52
2022/06/01 06:42:30;;;;;;;2.30;0.80;;;24.60;46.10;;;;;;5016647;28;20030;-52
2022/06/01 06:44:56;;;;;;;1.10;0.50;;;24.60;45.90;;;;;;5014051;28;20432;-53
2022/06/01 06:47:22;;;;;;;1.42;0.60;;;24.60;45.80;;;;;;5021747;28;20044;-52
2022/06/01 06:49:48;;;;;;;3.47;0.70;;;24.60;45.70;;;;;;5025208;28;20033;-53
2022/06/01 06:52:14;;;;;;;1.10;0.47;;;24.60;45.60;;;;;;5025371;28;20489;-52
2022/06/01 06:54:40;;;;;;;2.35;0.80;;;24.60;45.50;;;;;;5025895;28;20052;-51
2022/06/01 06:57:07;;;;;;;1.85;0.70;;;24.60;45.50;;;;;;5026350;28;20028;-53
2022/06/01 06:59:32;;;;;;;2.40;0.65;;;24.60;45.40;;;;;;5025190;28;20061;-51
2022/06/01 07:01:58;;;;;;;1.63;0.52;;;24.60;45.30;;;;;;5026003;28;20300;-52
2022/06/01 07:04:24;;;;;;;1.33;0.50;;;24.60;45.30;;;;;;5025832;28;20025;-52
2022/06/01 07:06:49;;;;;;;2.33;0.70;;;24.60;45.20;;;;;;5025968;28;20057;-53
2022/06/01 07:09:15;;;;;;;1.75;0.68;;;24.60;45.20;;;;;;5024652;28;20703;-54
2022/06/01 07:11:41;;;;;;;1.67;0.60;;;24.60;45.20;;;;;;5025663;28;20038;-52
2022/06/01 07:14:06;;;;;;;1.40;0.50;;;24.60;45.10;;;;;;5024895;28;20033;-54
2022/06/01 07:16:34;;;;;;;1.17;0.65;;;24.60;45.10;;;;;;5025544;28;20100;-55
2022/06/01 07:19:02;;;;;;;1.08;0.40;;;24.60;45.00;;;;;;5025676;28;20037;-54
2022/06/01 07:21:29;;;;;;;2.50;0.70;;;24.60;45.00;;;;;;5025797;28;20029;-53
2022/06/01 07:23:55;;;;;;;1.20;0.50;;;24.60;45.00;;;;;;5025919;28;20063;-53
2022/06/01 07:26:28;;;;;;;1.30;0.55;;;24.60;45.00;;;;;;5024967;28;20254;-53
2022/06/01 07:28:54;;;;;;;0.70;0.30;;;24.60;45.00;;;;;;5025471;28;20167;-53
2022/06/01 07:31:20;;;;;;;1.20;0.50;;;24.60;45.00;;;;;;5025795;28;20100;-53
2022/06/01 07:33:46;;;;;;;1.50;0.50;;;24.60;45.00;;;;;;5025670;28;20025;-55
2022/06/01 07:36:15;;;;;;;1.33;0.57;;;24.60;45.00;;;;;;5025658;28;20025;-55
2022/06/01 07:44:34;;;;;;;1.23;0.50;;;24.60;45.00;;;;;;5024477;28;20548;-55
2022/06/01 07:47:00;;;;;;;0.82;0.52;;;24.60;44.90;;;;;;5024142;28;20037;-52
2022/06/01 07:49:26;;;;;;;1.90;0.60;;;24.50;45.00;;;;;;5024387;28;20026;-53
2022/06/01 07:51:54;;;;;;;0.85;0.40;;;24.50;45.00;;;;;;5024307;28;20025;-52
2022/06/01 07:54:20;;;;;;;1.40;0.47;;;24.50;45.00;;;;;;5024910;28;20643;-53
2022/06/01 07:56:46;;;;;;;0.63;0.35;;;24.60;45.00;;;;;;5024734;28;20057;-52
2022/06/01 07:59:12;;;;;;;1.23;0.40;;;24.50;44.90;;;;;;5024087;28;20094;-53
2022/06/01 08:01:39;;;;;;;1.13;0.60;;;24.50;44.90;;;;;;5023369;28;20441;-52
2022/06/01 08:04:06;;;;;;;0.63;0.40;;;24.50;44.90;;;;;;5024353;28;20043;-51
2022/06/01 08:06:35;;;;;;;1.10;0.60;;;24.50;44.90;;;;;;5024243;28;20386;-54
2022/06/01 08:09:00;;;;;;;0.68;0.40;;;24.50;44.80;;;;;;5024705;28;20086;-52
2022/06/01 08:14:13;;;;;;;1.55;0.60;;;24.50;44.90;;;;;;5024020;28;20091;-52
2022/06/01 08:16:39;;;;;;;0.77;0.45;;;24.50;44.90;;;;;;5024269;28;20033;-54
2022/06/01 08:19:06;;;;;;;1.05;0.50;;;24.50;44.90;;;;;;5024423;28;20531;-52
2022/06/01 08:21:33;;;;;;;0.93;0.40;;;24.50;44.90;;;;;;5023079;28;20075;-54
2022/06/01 08:23:59;;;;;;;0.88;0.40;;;24.50;44.90;;;;;;5024531;28;20080;-54
2022/06/01 08:26:25;;;;;;;1.35;0.60;;;24.50;44.90;;;;;;5024359;28;20025;-53
2022/06/01 08:28:50;;;;;;;0.75;0.40;;;24.50;44.90;;;;;;5023724;28;20534;-51
2022/06/01 08:31:16;;;;;;;1.33;0.50;;;24.50;44.90;;;;;;5023881;28;20486;-54
2022/06/01 08:33:42;;;;;;;1.20;0.57;;;24.50;44.90;;;;;;5023439;28;20567;-53
2022/06/01 08:36:08;;;;;;;1.17;0.40;;;24.50;44.90;;;;;;5023090;28;20068;-53
2022/06/01 08:38:34;;;;;;;0.75;0.47;;;24.50;44.80;;;;;;5022827;28;20032;-52
2022/06/01 08:41:04;;;;;;;1.02;0.47;;;24.50;45.50;;;;;;5023635;28;20025;-52
2022/06/01 08:43:44;;;;;;;1.10;0.50;;;24.50;44.80;;;;;;5024058;28;20040;-52
2022/06/01 08:46:12;;;;;;;0.45;0.22;;;24.50;44.90;;;;;;5024070;28;20036;-53
2022/06/01 08:48:44;;;;;;;1.42;0.50;;;24.50;44.80;;;;;;5023056;28;20048;-54
2022/06/01 08:51:11;;;;;;;1.50;0.60;;;24.50;44.80;;;;;;5024468;28;20022;-52
2022/06/01 08:53:38;;;;;;;1.13;0.50;;;24.50;44.80;;;;;;5023558;28;20045;-54
2022/06/01 08:56:09;;;;;;;1.00;0.45;;;24.50;44.90;;;;;;5023752;28;20033;-52
2022/06/01 08:59:05;;;;;;;0.95;0.40;;;24.50;44.80;;;;;;5023723;28;20539;-52
2022/06/01 09:01:44;;;;;;;0.75;0.40;;;24.50;44.90;;;;;;5005818;28;20092;-53
2022/06/01 09:04:35;;;;;;;0.93;0.40;;;24.50;44.90;;;;;;5023700;28;20025;-53
2022/06/01 09:07:12;;;;;;;0.90;0.40;;;24.40;44.80;;;;;;5024013;28;20704;-55
2022/06/01 09:09:56;;;;;;;1.27;0.50;;;24.40;44.80;;;;;;5022560;28;20040;-54
2022/06/01 09:12:23;;;;;;;0.80;0.40;;;24.40;44.80;;;;;;5023325;28;20032;-53
2022/06/01 09:14:54;;;;;;;0.65;0.30;;;24.40;44.70;;;;;;5022366;28;20044;-54
2022/06/01 09:17:20;;;;;;;1.23;0.50;;;24.40;44.80;;;;;;5022698;28;20102;-53
2022/06/01 09:22:39;;;;;;;1.48;0.60;;;24.40;44.90;;;;;;5022927;28;20040;-56
2022/06/01 09:25:14;;;;;;;0.65;0.30;;;24.40;45.00;;;;;;5023737;28;20091;-55
2022/06/01 09:27:47;;;;;;;1.15;0.40;;;24.50;45.10;;;;;;5023985;28;20112;-53
2022/06/01 09:30:26;;;;;;;0.77;0.40;;;24.40;44.90;;;;;;5023763;28;20394;-52
2022/06/01 09:33:02;;;;;;;1.25;0.50;;;24.40;44.90;;;;;;5022588;28;20029;-52
2022/06/01 09:35:33;;;;;;;1.38;0.45;;;24.50;45.00;;;;;;5018414;28;20025;-55
2022/06/01 09:38:11;;;;;;;1.40;0.57;;;24.40;44.80;;;;;;5015589;28;20029;-53
2022/06/01 09:40:37;;;;;;;1.38;0.30;;;24.50;44.90;;;;;;5011862;28;20028;-55
2022/06/01 09:43:03;;;;;;;1.85;0.40;;;24.40;44.80;;;;;;5017184;28;20029;-55
2022/06/01 09:45:46;;;;;;;2.20;0.57;;;24.40;44.80;;;;;;5016400;28;20036;-56
2022/06/01 09:48:21;;;;;;;1.10;0.40;;;24.40;44.90;;;;;;5013046;28;20034;-54
2022/06/01 09:51:25;;;;;;;1.45;0.50;;;24.40;44.90;;;;;;5013143;28;20685;-54
2022/06/01 09:54:06;;;;;;;2.30;0.45;;;24.40;44.90;;;;;;5010614;28;20045;-53
2022/06/01 09:56:40;;;;;;;2.72;0.60;;;24.40;44.90;;;;;;5012733;28;20021;-53
2022/06/01 10:07:31;;;;;;;1.42;0.60;;;24.40;44.90;;;;;;5011968;28;20083;-53
2022/06/01 10:09:59;;;;;;;2.42;0.52;;;24.40;44.90;;;;;;5011958;28;20029;-53
2022/06/01 10:12:25;;;;;;;1.27;0.60;;;24.50;45.10;;;;;;5002063;28;20033;-55
2022/06/01 10:14:53;;;;;;;2.42;0.70;;;24.40;45.00;;;;;;5017308;28;20045;-53
2022/06/01 10:17:36;;;;;;;0.73;0.38;;;24.40;45.00;;;;;;5022730;28;20033;-53
2022/06/01 10:20:11;;;;;;;;;;;24.40;45.00;;;;;;5022641;28;20608;-52
2022/06/01 10:22:42;;;;;;;1.40;0.70;;;24.50;45.10;;;;;;5021032;28;19988;-53
2022/06/01 10:25:20;;;;;;;2.35;0.70;;;24.40;45.00;;;;;;5025323;28;20032;-55
2022/06/01 10:27:56;;;;;;;2.97;0.60;;;24.40;45.00;;;;;;5026317;28;20083;-53
2022/06/01 10:30:32;;;;;;;1.27;0.50;;;24.40;45.00;;;;;;5026099;28;20654;-53
2022/06/01 10:33:21;;;;;;;2.33;0.50;;;24.40;45.00;;;;;;5025493;28;20041;-53
2022/06/01 10:35:55;;;;;;;1.52;0.52;;;24.40;45.00;;;;;;5000645;28;20038;-54
2022/06/01 10:38:38;;;;;;;1.13;0.50;;;24.40;45.00;;;;;;5023517;28;20109;-54
2022/06/01 10:41:12;;;;;;;1.48;0.70;;;24.40;45.00;;;;;;5025670;28;20024;-55
2022/06/01 10:43:54;;;;;;;1.48;0.50;;;24.40;45.00;;;;;;5025518;28;20029;-53
2022/06/01 10:46:23;;;;;;;0.90;0.50;;;24.40;45.00;;;;;;5025669;28;20559;-55
2022/06/01 10:48:57;;;;;;;1.48;0.68;;;24.50;45.10;;;;;;5025246;28;20060;-54
2022/06/01 10:51:30;;;;;;;1.15;0.40;;;24.50;45.10;;;;;;5024232;28;20061;-53
2022/06/01 10:54:34;;;;;;;0.52;0.40;;;24.50;45.00;;;;;;5025098;28;20040;-54
2022/06/01 10:57:02;;;;;;;2.15;0.70;;;24.50;45.00;;;;;;5004120;28;20044;-53
2022/06/01 10:59:27;;;;;;;0.60;0.43;;;24.50;45.00;;;;;;5024907;28;20026;-52
2022/06/01 11:02:31;;;;;;;2.95;0.65;;;24.50;44.90;;;;;;5025396;28;20036;-53
2022/06/01 11:05:25;;;;;;;1.17;0.50;;;24.50;45.00;;;;;;5025123;28;20300;-53
2022/06/01 11:08:10;;;;;;;0.70;0.40;;;24.50;44.90;;;;;;5021329;28;20091;-55
2022/06/01 11:11:08;;;;;;;1.00;0.45;;;24.50;45.00;;;;;;5021596;28;20053;-54
2022/06/01 11:14:01;;;;;;;1.73;0.52;;;24.50;45.00;;;;;;5019012;28;20036;-53
2022/06/01 11:16:35;;;;;;;0.95;0.40;;;24.50;44.90;;;;;;5023529;28;20029;-53
2022/06/01 11:19:28;;;;;;;2.25;0.70;;;24.50;45.10;;;;;;5024150;28;20300;-52
2022/06/01 11:22:21;;;;;;;1.25;0.60;;;24.50;45.30;;;;;;5024427;28;20025;-53
2022/06/01 11:25:13;;;;;;;1.70;0.40;;;24.50;45.00;;;;;;5002115;28;20041;-52
2022/06/01 11:28:04;;;;;;;1.50;0.60;;;24.50;45.20;;;;;;5013665;28;20045;-54
2022/06/01 11:30:51;;;;;;;0.95;0.35;;;24.50;45.00;;;;;;5013411;28;20696;-54
2022/06/01 11:33:29;;;;;;;1.25;0.60;;;24.50;45.10;;;;;;5015862;28;20859;-53
2022/06/01 11:36:02;;;;;;;0.65;0.40;;;24.60;45.20;;;;;;5017484;28;20029;-53
2022/06/01 11:38:40;;;;;;;1.38;0.50;;;24.50;45.20;;;;;;5013127;28;20410;-53
2022/06/01 11:41:16;;;;;;;1.20;0.47;;;24.60;45.10;;;;;;5019559;28;20033;-55
2022/06/01 11:44:00;;;;;;;1.02;0.50;;;24.60;45.20;;;;;;5007027;28;20042;-53
2022/06/01 11:46:48;;;;;;;1.25;0.40;;;24.60;45.20;;;;;;5001956;28;20092;-53
2022/06/01 11:49:35;;;;;;;0.60;0.30;;;24.60;45.20;;;;;;4999497;28;20030;-52
2022/06/01 11:52:13;;;;;;;1.33;0.57;;;24.60;45.20;;;;;;5010580;28;20037;-55
2022/06/01 11:54:39;;;;;;;0.85;0.40;;;24.60;45.20;;;;;;5012547;28;20025;-53
2022/06/01 11:57:25;;;;;;;0.98;0.43;;;24.60;45.20;;;;;;5018801;28;20029;-54
2022/06/01 12:00:11;;;;;;;1.20;0.50;;;24.60;45.20;;;;;;5012770;28;20029;-53
2022/06/01 12:02:44;;;;;;;0.70;0.30;;;24.70;45.20;;;;;;5016699;28;20079;-53
2022/06/01 12:05:23;;;;;;;1.02;0.47;;;24.70;45.20;;;;;;5000808;28;20078;-53
2022/06/01 12:08:01;;;;;;;1.02;0.47;;;24.70;45.20;;;;;;5021709;28;20690;-53
2022/06/01 12:10:51;;;;;;;0.75;0.40;;;24.70;45.30;;;;;;5023559;28;20034;-54
2022/06/01 12:13:27;;;;;;;0.47;0.30;;;24.70;45.20;;;;;;5019865;28;20136;-54
2022/06/01 12:16:08;;;;;;;1.25;0.50;;;24.70;45.20;;;;;;5016974;28;20033;-52
2022/06/01 12:18:35;;;;;;;1.02;0.40;;;24.70;45.20;;;;;;5018060;28;20025;-54
2022/06/01 12:21:32;;;;;;;1.13;0.50;;;24.70;45.20;;;;;;5023960;28;20571;-53
2022/06/01 12:30:19;;;;;;;0.93;0.43;;;24.80;45.10;;;;;;5016152;28;20025;-54
2022/06/01 12:33:00;;;;;;;1.75;0.40;;;24.80;45.10;;;;;;5010282;28;20029;-53
2022/06/01 12:35:37;;;;;;;1.95;0.47;;;24.90;45.40;;;;;;5008436;28;20666;-55
2022/06/01 12:38:07;;;;;;;1.38;0.70;;;24.90;45.50;;;;;;5003543;28;20770;-55
2022/06/01 12:40:34;;;;;;;2.58;0.60;;;24.90;45.60;;;;;;5002887;28;20026;-54
2022/06/01 12:43:02;;;;;;;1.58;0.60;;;24.90;45.50;;;;;;5003762;28;20026;-55
2022/06/01 12:45:40;;;;;;;1.67;0.50;;;24.90;45.50;;;;;;5021098;28;20026;-56
2022/06/01 12:48:19;;;;;;;1.60;0.63;;;25.00;45.50;;;;;;5022349;28;20116;-57
2022/06/01 12:50:59;;;;;;;3.63;0.55;;;25.00;45.40;;;;;;5023472;28;20034;-55
2022/06/01 12:53:26;;;;;;;1.27;0.35;;;25.00;45.40;;;;;;5022856;28;20032;-54
2022/06/01 12:56:09;;;;;;;1.70;0.60;;;25.00;45.40;;;;;;5023195;28;20025;-55
2022/06/01 12:58:37;;;;;;;1.13;0.40;;;25.00;45.40;;;;;;5023083;28;20089;-56
2022/06/01 13:01:03;;;;;;;1.45;0.65;;;25.10;45.50;;;;;;5023330;28;20751;-55
2022/06/01 13:03:32;;;;;;;1.02;0.47;;;25.10;45.50;;;;;;5021190;28;20045;-54
2022/06/01 13:06:02;;;;;;;0.85;0.40;;;25.10;45.40;;;;;;5018140;28;20397;-54
2022/06/01 13:08:37;;;;;;;1.25;0.50;;;25.10;45.40;;;;;;5003609;28;20092;-56
2022/06/01 13:11:16;;;;;;;1.20;0.30;;;25.20;45.40;;;;;;5002990;28;20147;-54
2022/06/01 13:13:43;;;;;;;0.68;0.30;;;25.20;45.40;;;;;;5005439;28;20045;-54
2022/06/01 13:16:09;;;;;;;1.08;0.50;;;25.20;45.40;;;;;;5022342;28;20661;-55
2022/06/01 13:18:38;;;;;;;1.33;0.60;;;25.20;45.30;;;;;;5022490;28;20031;-55
2022/06/01 13:21:07;;;;;;;0.68;0.40;;;25.20;45.30;;;;;;5018928;28;20037;-56
2022/06/01 13:23:59;;;;;;;1.02;0.47;;;25.20;45.30;;;;;;5021792;28;20641;-55
2022/06/01 13:26:35;;;;;;;1.00;0.35;;;25.20;45.30;;;;;;5022610;28;20128;-56
2022/06/01 13:29:12;;;;;;;1.50;0.40;;;25.20;45.30;;;;;;5022188;28;20708;-54
2022/06/01 13:31:40;;;;;;;1.50;0.38;;;25.30;45.20;;;;;;5020672;28;20030;-56
2022/06/01 13:34:09;;;;;;;0.95;0.47;;;25.30;45.10;;;;;;5022578;28;20060;-55
2022/06/01 13:36:40;;;;;;;1.23;0.50;;;25.30;45.20;;;;;;5022362;28;20109;-55
2022/06/01 13:39:10;;;;;;;1.15;0.50;;;25.30;45.20;;;;;;5022761;28;20021;-56
2022/06/01 13:41:57;;;;;;;1.73;0.65;;;25.30;45.00;;;;;;5021336;28;20028;-55